Aviation Digital Data Service (ADDS)

Output produced by TAFs form (0755 UTC 03 July 2015)
found at http://aviationweather.gov/adds/tafs/
 
KTCC 030520Z 0306/0406 VRB05KT P6SM SCT070 BKN200 
     TEMPO 0306/0309 VRB15G30KT -TSRA BKN060CB 
     FM031300 VRB05KT P6SM FEW120 
     FM031800 17010KT P6SM FEW080 
     FM040000 23010KT P6SM VCSH SCT080 SCT150 
     FM040500 VRB06KT P6SM BKN080